Terminal Aerodrome Forecast
Issued by NWS

Home | Current Version | Previous Version | Text Only | Print | Product List | Glossary On
Versions: 1 2 3 4 5 6 7 8 9 10 11 12 13 14 15 16 17 18 19 20 21
000
FTUS41 KPBZ 220204 AAA
TAFDUJ
TAF AMD
KDUJ 220204Z 2202/2224 VRB03KT P6SM OVC080
      TEMPO 2203/2206 -SHRA
     FM220800 00000KT 5SM BR BKN100
     FM221300 10008KT P6SM BKN080=

USA.gov is the U.S. government's official web portal to all federal, state and local government web resources and services.